createdAt,value
2022-10-31T00:00:09.461Z,7.78
2022-10-31T00:02:41.403Z,8.05
2022-10-31T00:05:12.911Z,11.45
2022-10-31T00:07:44.722Z,14.30
2022-10-31T00:10:16.221Z,19.60
2022-10-31T00:12:48.077Z,9.25
2022-10-31T00:15:19.610Z,8.32
2022-10-31T00:17:51.457Z,6.78
2022-10-31T00:20:22.954Z,15.65
2022-10-31T00:22:54.480Z,8.95
2022-10-31T00:25:26.005Z,8.25
2022-10-31T00:27:58.053Z,10.85
2022-10-31T00:30:29.957Z,18.90
2022-10-31T00:33:02.178Z,8.48
2022-10-31T00:35:33.909Z,11.70
2022-10-31T00:38:05.465Z,5.38
2022-10-31T00:40:36.992Z,6.53
2022-10-31T00:43:08.814Z,9.77
2022-10-31T00:45:40.398Z,9.88
2022-10-31T00:48:12.295Z,7.95
2022-10-31T00:50:43.820Z,4.72
2022-10-31T00:53:15.836Z,19.65
2022-10-31T00:55:47.322Z,5.67
2022-10-31T00:58:19.190Z,7.63
2022-10-31T01:00:57.124Z,8.15
2022-10-31T01:03:29.077Z,5.25
2022-10-31T01:06:00.592Z,9.88
2022-10-31T01:08:32.461Z,8.65
2022-10-31T01:11:03.956Z,10.57
2022-10-31T01:13:35.807Z,6.50
2022-10-31T01:16:07.360Z,9.00
2022-10-31T01:18:39.223Z,6.82
2022-10-31T01:21:10.784Z,7.55
2022-10-31T01:23:42.673Z,6.47
2022-10-31T01:26:14.182Z,10.05
2022-10-31T01:28:46.121Z,6.85
2022-10-31T01:31:17.645Z,5.72
2022-10-31T01:33:49.434Z,8.50
2022-10-31T01:36:20.979Z,7.38
2022-10-31T01:38:52.866Z,7.13
2022-10-31T01:41:24.393Z,8.77
2022-10-31T01:43:56.421Z,8.32
2022-10-31T01:46:27.914Z,4.13
2022-10-31T01:48:59.724Z,7.20
2022-10-31T01:51:31.220Z,15.52
2022-10-31T01:54:03.135Z,8.55
2022-10-31T01:56:34.630Z,5.15
2022-10-31T01:59:06.512Z,9.77
2022-10-31T02:01:38.099Z,11.35
2022-10-31T02:04:10.133Z,5.60
2022-10-31T02:06:41.636Z,9.82
2022-10-31T02:09:13.430Z,9.65
2022-10-31T02:11:44.919Z,5.97
2022-10-31T02:14:16.914Z,8.20
2022-10-31T02:16:48.399Z,8.20
2022-10-31T02:19:20.407Z,9.95
2022-10-31T02:21:51.952Z,8.25
2022-10-31T02:24:23.824Z,6.22
2022-10-31T02:26:55.314Z,6.40
2022-10-31T02:29:27.130Z,5.97
2022-10-31T02:31:58.645Z,16.80
2022-10-31T02:34:30.493Z,4.82
2022-10-31T02:37:01.998Z,4.55
2022-10-31T02:39:33.870Z,6.57
2022-10-31T02:42:05.652Z,6.15
2022-10-31T02:44:37.201Z,5.53
2022-10-31T02:47:08.731Z,5.43
2022-10-31T02:49:40.247Z,7.15
2022-10-31T02:52:11.997Z,3.88
2022-10-31T02:54:43.492Z,6.60
2022-10-31T02:57:15.408Z,10.10
2022-10-31T02:59:46.987Z,7.20
2022-10-31T03:02:18.981Z,8.98
2022-10-31T03:04:50.564Z,11.43
2022-10-31T03:07:22.550Z,9.00
2022-10-31T03:09:54.176Z,7.03
2022-10-31T03:12:26.000Z,6.40
2022-10-31T03:14:57.498Z,4.63
2022-10-31T03:17:29.362Z,9.07
2022-10-31T03:20:00.861Z,15.30
2022-10-31T03:22:32.921Z,8.45
2022-10-31T03:25:04.433Z,10.30
2022-10-31T03:27:36.308Z,7.90
2022-10-31T03:30:08.771Z,6.70
2022-10-31T03:32:40.688Z,8.90
2022-10-31T03:35:12.213Z,5.78
2022-10-31T03:37:44.346Z,5.90
2022-10-31T03:40:15.827Z,5.93
2022-10-31T03:42:47.651Z,7.78
2022-10-31T03:45:19.155Z,11.30
2022-10-31T03:47:50.937Z,9.63
2022-10-31T03:50:22.414Z,10.93
2022-10-31T03:52:54.345Z,9.88
2022-10-31T03:55:25.838Z,13.68
2022-10-31T03:57:58.102Z,8.85
2022-10-31T04:00:29.934Z,7.88
2022-10-31T04:03:02.089Z,8.10
2022-10-31T04:05:33.842Z,7.97
2022-10-31T04:08:05.653Z,8.73
2022-10-31T04:10:37.170Z,13.98
2022-10-31T04:13:09.195Z,17.58
2022-10-31T04:15:41.134Z,6.03
2022-10-31T04:18:12.623Z,11.38
2022-10-31T04:20:44.422Z,7.30
2022-10-31T04:23:15.928Z,5.55
2022-10-31T04:25:47.722Z,9.02
2022-10-31T04:30:55.986Z,11.60
2022-10-31T04:33:27.504Z,10.00
2022-10-31T04:35:59.339Z,11.32
2022-10-31T04:38:30.812Z,6.28
2022-10-31T04:41:02.668Z,7.07
2022-10-31T04:43:34.169Z,3.95
2022-10-31T04:46:05.987Z,8.68
2022-10-31T04:48:37.482Z,4.25
2022-10-31T04:51:09.339Z,5.53
2022-10-31T04:53:40.912Z,8.55
2022-10-31T04:56:12.686Z,5.25
2022-10-31T04:58:44.200Z,6.93
2022-10-31T05:01:16.190Z,12.75
2022-10-31T05:03:47.789Z,13.87
2022-10-31T05:06:19.301Z,7.35
2022-10-31T05:08:50.789Z,5.13
2022-10-31T05:11:22.557Z,10.43
2022-10-31T05:13:54.063Z,5.90
2022-10-31T05:16:26.012Z,8.05
2022-10-31T05:18:57.514Z,6.47
2022-10-31T05:21:29.429Z,3.20
2022-10-31T05:24:00.927Z,8.48
2022-10-31T05:26:32.742Z,4.85
2022-10-31T05:29:04.326Z,9.40
2022-10-31T05:31:36.356Z,6.15
2022-10-31T05:34:07.859Z,7.00
2022-10-31T05:36:39.516Z,6.32
2022-10-31T05:39:11.004Z,8.73
2022-10-31T05:41:42.531Z,8.57
2022-10-31T05:44:14.140Z,10.23
2022-10-31T05:46:45.999Z,6.90
2022-10-31T05:49:18.405Z,7.45
2022-10-31T05:51:50.067Z,7.38
2022-10-31T05:54:21.572Z,9.52
2022-10-31T05:56:53.381Z,6.82
2022-10-31T05:59:24.983Z,5.68
2022-10-31T06:01:56.908Z,12.90
2022-10-31T06:04:28.499Z,5.30
2022-10-31T06:07:00.027Z,7.53
2022-10-31T06:09:31.545Z,7.50
2022-10-31T06:12:03.059Z,8.65
2022-10-31T06:14:34.908Z,10.13
2022-10-31T06:17:06.881Z,6.95
2022-10-31T06:19:38.441Z,4.45
2022-10-31T06:22:12.402Z,4.72
2022-10-31T06:24:43.884Z,5.97
2022-10-31T06:27:15.845Z,9.93
2022-10-31T06:29:47.403Z,4.32
2022-10-31T06:32:18.953Z,5.97
2022-10-31T06:34:50.467Z,5.88
2022-10-31T06:37:21.970Z,7.88
2022-10-31T06:39:53.888Z,5.50
2022-10-31T06:42:25.428Z,9.32
2022-10-31T06:44:56.948Z,9.75
2022-10-31T06:47:28.440Z,5.00
2022-10-31T06:49:59.979Z,13.75
2022-10-31T06:52:31.486Z,4.30
2022-10-31T06:55:03.021Z,14.95
2022-10-31T06:57:34.549Z,3.60
2022-10-31T07:00:06.086Z,8.18
2022-10-31T07:02:37.595Z,10.30
2022-10-31T07:05:09.117Z,13.25
2022-10-31T07:07:40.615Z,8.50
2022-10-31T07:12:43.905Z,5.13
2022-10-31T07:15:15.394Z,4.50
2022-10-31T07:17:46.911Z,9.95
2022-10-31T07:20:18.525Z,8.93
2022-10-31T07:22:50.846Z,3.70
2022-10-31T07:25:22.468Z,3.90
2022-10-31T07:27:53.953Z,9.70
2022-10-31T07:30:25.781Z,4.40
2022-10-31T07:32:57.290Z,7.25
2022-10-31T07:35:29.255Z,5.68
2022-10-31T07:38:00.939Z,19.95
2022-10-31T07:40:33.092Z,6.72
2022-10-31T07:43:05.025Z,8.63
2022-10-31T07:45:38.518Z,6.78
2022-10-31T07:48:10.006Z,15.27
2022-10-31T07:50:41.571Z,5.70
2022-10-31T07:53:13.113Z,8.50
2022-10-31T07:55:44.699Z,6.25
2022-10-31T07:58:16.340Z,5.93
2022-10-31T08:00:47.995Z,5.47
2022-10-31T08:03:19.608Z,6.72
2022-10-31T08:05:51.144Z,5.20
2022-10-31T08:08:22.642Z,11.82
2022-10-31T08:10:54.493Z,13.13
2022-10-31T08:13:26.716Z,8.40
2022-10-31T08:15:58.560Z,7.50
2022-10-31T08:18:30.168Z,9.35
2022-10-31T08:21:01.935Z,13.68
2022-10-31T08:23:33.453Z,11.65
2022-10-31T08:26:07.029Z,7.25
2022-10-31T08:28:38.512Z,7.60
2022-10-31T08:31:11.064Z,9.18
2022-10-31T08:33:42.568Z,8.77
2022-10-31T08:36:14.078Z,9.02
2022-10-31T08:38:45.556Z,8.65
2022-10-31T08:41:17.037Z,7.88
2022-10-31T08:43:48.499Z,12.93
2022-10-31T08:46:20.003Z,10.00
2022-10-31T08:48:51.517Z,9.32
2022-10-31T08:51:23.052Z,19.13
2022-10-31T08:53:54.538Z,10.70
2022-10-31T08:56:26.023Z,13.65
2022-10-31T08:58:57.801Z,10.00
2022-10-31T09:01:29.485Z,11.43
2022-10-31T09:04:01.126Z,7.40
2022-10-31T09:06:33.023Z,13.90
2022-10-31T09:09:04.530Z,10.52
2022-10-31T09:11:42.090Z,9.77
2022-10-31T09:14:13.609Z,10.88
2022-10-31T09:16:45.358Z,7.28
2022-10-31T09:19:17.852Z,12.75
2022-10-31T09:21:49.813Z,10.90
2022-10-31T09:24:21.323Z,10.13
2022-10-31T09:26:52.820Z,7.75
2022-10-31T09:29:24.342Z,8.70
2022-10-31T09:31:55.856Z,13.60
2022-10-31T09:34:27.395Z,11.52
2022-10-31T09:36:59.383Z,8.68
2022-10-31T09:39:30.892Z,8.80
2022-10-31T09:42:02.778Z,10.50
2022-10-31T09:44:34.264Z,19.55
2022-10-31T09:47:06.052Z,10.57
2022-10-31T09:49:38.812Z,11.65
2022-10-31T09:54:47.167Z,21.40
2022-10-31T09:57:18.656Z,13.40
2022-10-31T09:59:50.227Z,8.52
2022-10-31T10:02:21.765Z,9.98
2022-10-31T10:04:53.386Z,10.68
2022-10-31T10:07:24.956Z,17.65
2022-10-31T10:09:56.535Z,14.45
2022-10-31T10:12:28.029Z,10.25
2022-10-31T10:14:59.905Z,17.23
2022-10-31T10:17:32.773Z,11.70
2022-10-31T10:22:35.895Z,16.45
2022-10-31T10:25:07.816Z,10.27
2022-10-31T10:27:39.315Z,13.18
2022-10-31T10:30:10.804Z,12.07
2022-10-31T10:32:42.286Z,14.48
2022-10-31T10:35:14.149Z,10.70
2022-10-31T10:37:45.624Z,10.50
2022-10-31T10:40:17.245Z,17.23
2022-10-31T10:43:07.494Z,10.23
2022-10-31T10:45:57.709Z,10.63
2022-10-31T10:48:29.197Z,13.05
2022-10-31T10:51:01.161Z,16.90
2022-10-31T10:53:33.492Z,19.45
2022-10-31T10:56:05.362Z,22.35
2022-10-31T10:58:38.284Z,22.00
2022-10-31T11:03:41.886Z,11.80
2022-10-31T11:06:13.693Z,11.68
2022-10-31T11:08:45.197Z,17.80
2022-10-31T11:11:17.075Z,10.55
2022-10-31T11:13:48.613Z,15.60
2022-10-31T11:16:20.127Z,13.95
2022-10-31T11:18:51.602Z,18.30
2022-10-31T11:21:23.106Z,13.63
2022-10-31T11:23:54.580Z,13.90
2022-10-31T11:26:29.537Z,15.25
2022-10-31T11:29:01.067Z,10.82
2022-10-31T11:31:34.252Z,12.20
2022-10-31T11:34:05.859Z,15.63
2022-10-31T11:36:37.363Z,15.05
2022-10-31T11:39:08.842Z,18.80
2022-10-31T11:41:40.694Z,13.30
2022-10-31T11:44:12.172Z,10.63
2022-10-31T11:46:44.026Z,10.95
2022-10-31T11:49:15.615Z,14.23
2022-10-31T11:51:47.431Z,10.45
2022-10-31T11:54:18.920Z,12.40
2022-10-31T11:56:50.402Z,12.75
2022-10-31T11:59:21.881Z,19.15
2022-10-31T12:01:53.538Z,12.43
2022-10-31T12:04:25.410Z,9.55
2022-10-31T12:06:56.972Z,13.73
2022-10-31T12:09:28.894Z,13.43
2022-10-31T12:12:00.371Z,13.88
2022-10-31T12:14:33.340Z,14.18
2022-10-31T12:19:36.607Z,22.88
2022-10-31T12:22:10.200Z,9.10
2022-10-31T12:24:42.005Z,13.48
2022-10-31T12:27:13.923Z,14.10
2022-10-31T12:29:45.716Z,15.43
2022-10-31T12:32:17.236Z,10.77
2022-10-31T12:34:49.576Z,10.05
2022-10-31T12:37:21.148Z,13.40
2022-10-31T12:39:53.048Z,17.45
2022-10-31T12:42:24.513Z,8.93
2022-10-31T12:44:56.051Z,10.27
2022-10-31T12:47:27.555Z,14.70
2022-10-31T12:49:59.391Z,16.55
2022-10-31T12:52:32.226Z,10.57
2022-10-31T12:57:37.107Z,12.32
2022-10-31T13:00:08.639Z,18.50
2022-10-31T13:02:40.138Z,15.10
2022-10-31T13:05:12.014Z,13.00
2022-10-31T13:07:44.342Z,13.27
2022-10-31T13:10:15.984Z,11.70
2022-10-31T13:12:47.545Z,13.65
2022-10-31T13:15:20.071Z,11.38
2022-10-31T13:17:51.565Z,15.48
2022-10-31T13:20:23.235Z,13.60
2022-10-31T13:22:57.085Z,14.27
2022-10-31T13:25:28.980Z,13.50
2022-10-31T13:28:00.634Z,16.63
2022-10-31T13:30:32.112Z,12.40
2022-10-31T13:33:04.149Z,15.80
2022-10-31T13:35:36.854Z,16.90
2022-10-31T13:38:08.321Z,24.88
2022-10-31T13:40:40.191Z,12.50
2022-10-31T13:43:11.893Z,12.88
2022-10-31T13:45:43.878Z,16.38
2022-10-31T13:48:15.361Z,17.87
2022-10-31T13:50:47.223Z,10.35
2022-10-31T13:53:18.743Z,11.75
2022-10-31T13:55:50.554Z,11.73
2022-10-31T13:58:22.040Z,11.77
2022-10-31T14:00:53.551Z,12.82
2022-10-31T14:03:49.400Z,15.55
2022-10-31T14:06:16.916Z,16.25
2022-10-31T14:08:48.389Z,23.90
2022-10-31T14:11:20.288Z,17.85
2022-10-31T14:13:51.777Z,9.85
2022-10-31T14:16:23.589Z,9.43
2022-10-31T14:18:55.059Z,19.75
2022-10-31T14:21:26.847Z,17.13
2022-10-31T14:23:58.419Z,12.23
2022-10-31T14:26:29.955Z,12.60
2022-10-31T14:29:01.597Z,14.18
2022-10-31T14:31:33.086Z,13.48
2022-10-31T14:34:04.704Z,15.15
2022-10-31T14:36:36.241Z,13.75
2022-10-31T14:39:08.321Z,15.40
2022-10-31T14:41:40.086Z,13.63
2022-10-31T14:44:11.585Z,8.30
2022-10-31T14:46:43.404Z,10.57
2022-10-31T14:49:15.536Z,21.85
2022-10-31T14:51:47.272Z,10.90
2022-10-31T14:54:18.757Z,12.43
2022-10-31T14:56:50.716Z,16.20
2022-10-31T14:59:22.219Z,13.83
2022-10-31T15:01:55.033Z,13.77
2022-10-31T15:06:58.151Z,16.40
2022-10-31T15:09:29.723Z,16.77
2022-10-31T15:12:01.665Z,16.02
2022-10-31T15:14:33.297Z,11.90
2022-10-31T15:17:05.507Z,16.40
2022-10-31T15:19:39.178Z,12.35
2022-10-31T15:22:10.654Z,12.82
2022-10-31T15:24:42.670Z,19.38
2022-10-31T15:27:14.261Z,15.50
2022-10-31T15:29:45.791Z,22.00
2022-10-31T15:32:17.563Z,18.00
2022-10-31T15:34:49.478Z,15.30
2022-10-31T15:37:21.085Z,19.75
2022-10-31T15:39:52.560Z,17.55
2022-10-31T15:42:24.188Z,22.65
2022-10-31T15:44:55.715Z,18.90
2022-10-31T15:47:27.243Z,16.42
2022-10-31T15:49:59.188Z,24.73
2022-10-31T15:52:30.713Z,16.77
2022-10-31T15:55:02.280Z,13.48
2022-10-31T15:57:33.778Z,17.88
2022-10-31T16:00:05.570Z,18.98
2022-10-31T16:02:37.136Z,20.23
2022-10-31T16:05:09.173Z,22.73
2022-10-31T16:07:40.648Z,25.27
2022-10-31T16:10:12.877Z,16.67
2022-10-31T16:12:44.341Z,21.52
2022-10-31T16:15:16.150Z,21.30
2022-10-31T16:17:47.646Z,21.75
2022-10-31T16:20:20.669Z,28.13
2022-10-31T16:25:23.781Z,27.20
2022-10-31T16:27:55.319Z,25.60
2022-10-31T16:30:26.866Z,23.73
2022-10-31T16:32:59.530Z,23.77
2022-10-31T16:38:03.085Z,23.17
2022-10-31T16:40:34.621Z,20.58
2022-10-31T16:43:06.120Z,24.88
2022-10-31T16:45:38.053Z,31.92
2022-10-31T16:48:09.517Z,19.40
2022-10-31T16:50:41.426Z,20.08
2022-10-31T16:53:15.545Z,21.60
2022-10-31T16:55:47.503Z,22.90
2022-10-31T16:58:18.988Z,22.85
2022-10-31T17:00:50.726Z,21.65
2022-10-31T17:03:22.262Z,28.65
2022-10-31T17:05:56.398Z,28.00
2022-10-31T17:08:27.908Z,24.90
2022-10-31T17:10:59.792Z,18.70
2022-10-31T17:13:31.263Z,30.10
2022-10-31T17:16:03.480Z,29.42
2022-10-31T17:18:34.953Z,23.25
2022-10-31T17:21:07.202Z,30.42
2022-10-31T17:23:38.708Z,29.42
2022-10-31T17:26:10.883Z,31.42
2022-10-31T17:28:42.434Z,35.00
2022-10-31T17:31:14.211Z,27.80
2022-10-31T17:33:46.147Z,22.70
2022-10-31T17:36:17.669Z,33.83
2022-10-31T17:38:49.512Z,29.90
2022-10-31T17:41:21.025Z,23.35
2022-10-31T17:43:52.822Z,24.95
2022-10-31T17:46:24.357Z,25.23
2022-10-31T17:48:55.860Z,30.20
2022-10-31T17:51:27.475Z,25.83
2022-10-31T17:53:59.322Z,31.98
2022-10-31T17:56:30.853Z,24.90
2022-10-31T17:59:02.714Z,27.52
2022-10-31T18:01:34.370Z,25.02
2022-10-31T18:04:06.429Z,28.92
2022-10-31T18:06:37.880Z,23.17
2022-10-31T18:09:09.842Z,37.70
2022-10-31T18:11:41.323Z,28.80
2022-10-31T18:14:13.105Z,27.98
2022-10-31T18:16:44.987Z,25.70
2022-10-31T18:19:17.027Z,19.70
2022-10-31T18:21:48.487Z,32.33
2022-10-31T18:24:20.339Z,27.90
2022-10-31T18:26:51.790Z,27.60
2022-10-31T18:29:23.270Z,29.10
2022-10-31T18:31:55.239Z,31.58
2022-10-31T18:34:27.260Z,24.77
2022-10-31T18:36:58.745Z,33.10
2022-10-31T18:39:30.675Z,27.05
2022-10-31T18:42:02.148Z,34.03
2022-10-31T18:44:34.735Z,28.70
2022-10-31T18:47:06.216Z,28.67
2022-10-31T18:49:38.221Z,30.70
2022-10-31T18:52:09.765Z,27.15
2022-10-31T18:54:41.599Z,35.67
2022-10-31T18:57:13.261Z,26.75
2022-10-31T18:59:45.036Z,27.55
2022-10-31T19:02:17.780Z,21.95
2022-10-31T19:07:21.267Z,29.63
2022-10-31T19:09:52.747Z,26.52
2022-10-31T19:12:24.338Z,24.85
2022-10-31T19:14:56.282Z,22.50
2022-10-31T19:17:27.749Z,27.98
2022-10-31T19:19:59.507Z,29.13
2022-10-31T19:22:31.122Z,31.67
2022-10-31T19:25:06.237Z,25.17
2022-10-31T19:27:41.784Z,32.80
2022-10-31T19:30:13.401Z,24.48
2022-10-31T19:32:44.989Z,32.05
2022-10-31T19:35:16.968Z,29.90
2022-10-31T19:37:48.428Z,30.20
2022-10-31T19:40:20.201Z,36.85
2022-10-31T19:42:51.665Z,28.25
2022-10-31T19:45:23.514Z,31.35
2022-10-31T19:47:55.041Z,23.75
2022-10-31T19:50:28.222Z,32.50
2022-10-31T19:53:00.633Z,27.50
2022-10-31T19:55:32.470Z,28.33
2022-10-31T19:58:04.402Z,27.50
2022-10-31T20:00:35.930Z,26.25
2022-10-31T20:03:07.867Z,23.55
2022-10-31T20:05:39.337Z,32.00
2022-10-31T20:08:10.822Z,32.95
2022-10-31T20:10:42.291Z,23.55
2022-10-31T20:13:15.202Z,34.30
2022-10-31T20:18:18.180Z,24.40
2022-10-31T20:20:49.965Z,25.92
2022-10-31T20:23:21.796Z,26.23
2022-10-31T20:25:53.278Z,25.67
2022-10-31T20:28:24.773Z,26.70
2022-10-31T20:30:56.282Z,28.23
2022-10-31T20:33:28.121Z,25.50
2022-10-31T20:35:59.613Z,30.60
2022-10-31T20:38:31.477Z,26.00
2022-10-31T20:41:02.957Z,25.13
2022-10-31T20:43:34.978Z,25.60
2022-10-31T20:46:06.556Z,27.13
2022-10-31T20:48:38.403Z,25.50
2022-10-31T20:51:09.991Z,24.70
2022-10-31T20:53:41.929Z,21.55
2022-10-31T20:56:13.406Z,22.80
2022-10-31T20:58:45.211Z,49.75
2022-10-31T21:01:16.840Z,22.45
2022-10-31T21:03:50.638Z,29.23
2022-10-31T21:06:23.257Z,24.90
2022-10-31T21:08:55.142Z,29.55
2022-10-31T21:11:26.657Z,24.77
2022-10-31T21:13:58.543Z,33.00
2022-10-31T21:16:31.000Z,32.17
2022-10-31T21:19:03.379Z,23.60
2022-10-31T21:21:34.921Z,24.73
2022-10-31T21:24:07.050Z,26.45
2022-10-31T21:26:38.609Z,28.60
2022-10-31T21:29:10.477Z,30.48
2022-10-31T21:31:41.976Z,23.88
2022-10-31T21:34:13.959Z,24.83
2022-10-31T21:36:45.460Z,30.33
2022-10-31T21:39:17.512Z,27.52
2022-10-31T21:41:48.983Z,31.43
2022-10-31T21:44:20.806Z,32.80
2022-10-31T21:46:52.289Z,24.45
2022-10-31T21:49:24.127Z,30.60
2022-10-31T21:51:55.611Z,27.65
2022-10-31T21:54:27.532Z,24.88
2022-10-31T21:56:59.339Z,27.23
2022-10-31T21:59:30.871Z,24.80
2022-10-31T22:02:02.930Z,29.42
2022-10-31T22:04:34.691Z,21.80
2022-10-31T22:07:06.462Z,27.90
2022-10-31T22:09:38.898Z,25.73
2022-10-31T22:12:10.983Z,26.77
2022-10-31T22:17:14.127Z,23.45
2022-10-31T22:19:45.978Z,22.42
2022-10-31T22:22:17.787Z,20.98
2022-10-31T22:24:49.340Z,23.15
2022-10-31T22:27:21.246Z,25.40
2022-10-31T22:29:56.395Z,21.00
2022-10-31T22:32:28.305Z,29.35
2022-10-31T22:34:59.812Z,18.88
2022-10-31T22:37:31.634Z,23.90
2022-10-31T22:40:03.471Z,22.55
2022-10-31T22:42:35.363Z,20.50
2022-10-31T22:45:06.819Z,23.55
2022-10-31T22:47:38.793Z,18.35
2022-10-31T22:50:10.352Z,23.85
2022-10-31T22:52:42.235Z,28.73
2022-10-31T22:55:15.385Z,19.50
2022-10-31T22:57:47.158Z,22.75
2022-10-31T23:00:18.646Z,23.70
2022-10-31T23:02:50.155Z,21.85
2022-10-31T23:05:21.624Z,24.58
2022-10-31T23:07:53.442Z,19.25
2022-10-31T23:10:33.061Z,18.60
2022-10-31T23:13:23.582Z,23.27
2022-10-31T23:15:55.057Z,19.63
2022-10-31T23:18:48.576Z,20.10
2022-10-31T23:21:37.597Z,14.82
2022-10-31T23:24:09.081Z,17.58
2022-10-31T23:27:00.054Z,15.13
2022-10-31T23:29:31.554Z,15.98
2022-10-31T23:32:03.390Z,27.23
2022-10-31T23:34:34.862Z,27.90
2022-10-31T23:39:39.067Z,22.10
2022-10-31T23:42:10.984Z,17.50
2022-10-31T23:44:42.522Z,12.68
2022-10-31T23:47:14.368Z,19.58
2022-10-31T23:49:45.879Z,12.70
2022-10-31T23:52:17.779Z,18.05
2022-10-31T23:54:49.260Z,18.33
2022-10-31T23:57:21.134Z,25.88
2022-10-31T23:59:52.707Z,17.65
